Time;durP1;ratioP1;P1;durP2;ratioP2;P2;SDS_P1;SDS_P2;PMS_P1;PMS_P2;Temp;Humidity;BMP_temperature;BMP_pressure;BME280_temperature;BME280_humidity;BME280_pressure;Samples;Min_cycle;Max_cycle;Signal;HPM_P1;HPM_P2
2022/11/19 00:02:13;;;;;;;10.30;9.37;;;;;;;0.31;78.62;100621.22;4993177;28;20203;-75
2022/11/19 00:04:39;;;;;;;11.63;10.63;;;;;;;0.27;79.00;100613.41;4993281;28;20238;-74
2022/11/19 00:07:05;;;;;;;10.60;9.60;;;;;;;0.30;79.01;100616.94;4992562;28;20608;-74
2022/11/19 00:09:33;;;;;;;12.52;11.43;;;;;;;0.35;78.51;100602.50;4992317;28;20452;-74
2022/11/19 00:14:44;;;;;;;11.07;10.07;;;;;;;0.26;78.48;100610.00;5000842;28;20236;-74
2022/11/19 00:17:11;;;;;;;11.03;9.90;;;;;;;0.31;78.50;100612.66;5002159;28;20704;-74
2022/11/19 00:19:37;;;;;;;10.20;9.20;;;;;;;0.31;78.41;100625.50;5003328;28;20210;-74
2022/11/19 00:22:04;;;;;;;10.60;9.23;;;;;;;0.22;78.49;100630.38;5000307;28;20210;-74
2022/11/19 00:24:30;;;;;;;11.43;10.17;;;;;;;0.13;78.04;100626.75;5000912;28;20231;-74
2022/11/19 00:26:58;;;;;;;11.43;9.90;;;;;;;0.11;78.42;100615.56;5002815;28;20222;-74
2022/11/19 00:29:24;;;;;;;11.00;9.87;;;;;;;0.06;78.29;100608.59;5001575;28;20546;-74
2022/11/19 00:31:51;;;;;;;11.07;10.07;;;;;;;0.09;78.95;100604.41;5001043;28;20207;-74
2022/11/19 00:34:17;;;;;;;10.80;9.80;;;;;;;0.06;79.37;100600.88;5003056;28;20199;-74
2022/11/19 00:36:44;;;;;;;10.90;9.90;;;;;;;0.11;78.51;100587.34;5000826;28;20224;-74
2022/11/19 00:39:10;;;;;;;10.40;9.47;;;;;;;0.06;79.10;100594.06;5001196;28;20214;-74
2022/11/19 00:41:37;;;;;;;10.30;9.30;;;;;;;0.07;77.93;100606.06;5002295;28;20212;-74
2022/11/19 00:44:05;;;;;;;10.87;9.87;;;;;;;0.06;78.48;100619.75;4992047;28;20238;-74
2022/11/19 00:46:31;;;;;;;10.23;9.33;;;;;;;0.07;77.82;100634.28;4992148;28;20229;-74
2022/11/19 00:48:59;;;;;;;10.90;9.90;;;;;;;-0.04;78.14;100643.38;4992120;28;20676;-74
2022/11/19 00:51:29;;;;;;;11.47;10.37;;;;;;;-0.01;78.05;100635.78;4991529;28;20685;-74
2022/11/19 00:53:56;;;;;;;11.17;10.07;;;;;;;0.00;78.07;100652.94;4991887;28;20218;-74
2022/11/19 00:56:25;;;;;;;11.97;10.90;;;;;;;-0.04;78.23;100641.72;4991316;28;20223;-74
2022/11/19 00:58:52;;;;;;;10.33;9.30;;;;;;;-0.06;78.57;100645.03;4988784;28;20216;-74
2022/11/19 01:01:22;;;;;;;12.43;9.80;;;;;;;-0.09;78.63;100640.72;4990054;28;20210;-74
2022/11/19 01:03:49;;;;;;;11.33;10.23;;;;;;;-0.09;77.78;100635.56;4991850;28;20709;-74
2022/11/19 01:06:18;;;;;;;11.00;10.00;;;;;;;-0.19;78.33;100640.44;4992816;28;20724;-74
2022/11/19 01:08:45;;;;;;;12.47;11.40;;;;;;;-0.23;78.96;100642.88;4992697;28;20195;-74
2022/11/19 01:11:13;;;;;;;11.03;9.93;;;;;;;-0.19;78.88;100636.16;4992906;28;20207;-74
2022/11/19 01:13:41;;;;;;;10.77;9.67;;;;;;;-0.12;78.05;100634.63;4993997;28;20604;-74
2022/11/19 01:16:10;;;;;;;11.23;10.20;;;;;;;-0.19;78.51;100646.41;4993768;28;20230;-74
2022/11/19 01:18:40;;;;;;;10.90;9.80;;;;;;;-0.14;78.19;100647.44;4993917;28;20206;-74
2022/11/19 01:21:09;;;;;;;11.97;10.87;;;;;;;-0.17;78.43;100652.47;4993866;28;20203;-74
2022/11/19 01:23:36;;;;;;;12.00;10.90;;;;;;;-0.21;77.67;100668.59;4991615;28;20326;-74
2022/11/19 01:26:03;;;;;;;11.40;10.20;;;;;;;-0.33;78.17;100678.50;4993786;28;20418;-74
2022/11/19 01:28:30;;;;;;;11.40;10.37;;;;;;;-0.32;77.66;100672.53;4993802;28;20200;-74
2022/11/19 01:30:57;;;;;;;11.57;10.47;;;;;;;-0.32;78.39;100667.41;4993446;28;20694;-74
2022/11/19 01:33:24;;;;;;;11.90;10.70;;;;;;;-0.26;77.75;100670.16;4994253;28;20210;-74
2022/11/19 01:36:00;;;;;;;11.33;10.37;;;;;;;-0.30;77.83;100670.88;4993336;28;20692;-74
2022/11/19 01:38:27;;;;;;;11.37;10.37;;;;;;;-0.33;78.03;100665.69;4993848;28;20244;-74
2022/11/19 01:40:54;;;;;;;12.03;10.47;;;;;;;-0.37;77.60;100669.84;4990902;28;20235;-74
2022/11/19 01:43:21;;;;;;;11.27;10.27;;;;;;;-0.33;78.19;100669.09;4993385;28;20221;-74
2022/11/19 01:45:53;;;;;;;12.20;11.00;;;;;;;-0.36;77.38;100674.13;4993399;28;20229;-74
2022/11/19 01:48:24;;;;;;;11.33;10.33;;;;;;;-0.32;77.80;100680.22;4991565;28;20232;-74
2022/11/19 01:50:54;;;;;;;12.67;11.43;;;;;;;-0.41;77.82;100691.09;4993168;28;20230;-74
2022/11/19 01:53:27;;;;;;;10.97;9.97;;;;;;;-0.35;76.96;100701.53;4993317;28;20572;-74
2022/11/19 01:55:55;;;;;;;11.87;10.77;;;;;;;-0.33;76.57;100702.44;4990592;28;20208;-74
2022/11/19 01:58:24;;;;;;;11.57;10.53;;;;;;;-0.32;76.59;100721.25;4993240;28;20201;-74
2022/11/19 02:00:50;;;;;;;10.93;9.93;;;;;;;-0.34;77.03;100717.78;4993127;28;20211;-74
2022/11/19 02:03:18;;;;;;;11.33;10.17;;;;;;;-0.38;77.07;100732.19;5011656;22;20223;-71
2022/11/19 02:05:46;;;;;;;11.80;10.70;;;;;;;-0.39;76.59;100730.47;5013006;28;20674;-71
2022/11/19 02:08:40;;;;;;;11.37;10.37;;;;;;;-0.47;77.48;100735.38;5012830;28;20672;-71
2022/11/19 02:11:23;;;;;;;10.53;9.60;;;;;;;-0.47;77.44;100729.38;5012103;28;20711;-72
2022/11/19 02:14:00;;;;;;;10.50;9.60;;;;;;;-0.51;77.27;100727.56;5013237;28;20305;-71
2022/11/19 02:16:33;;;;;;;11.47;10.13;;;;;;;-0.52;77.55;100730.94;5013159;28;20226;-71
2022/11/19 02:19:07;;;;;;;10.63;9.63;;;;;;;-0.60;77.76;100725.56;5012882;28;20575;-71
2022/11/19 02:21:46;;;;;;;10.60;9.70;;;;;;;-0.56;77.63;100727.38;5012512;28;20681;-71
2022/11/19 02:24:39;;;;;;;9.97;8.97;;;;;;;-0.59;77.32;100724.75;5012975;28;20222;-71
2022/11/19 02:27:49;;;;;;;10.80;9.80;;;;;;;-0.73;78.00;100726.00;5012884;28;20367;-71
2022/11/19 02:30:18;;;;;;;11.07;9.97;;;;;;;-0.71;77.83;100711.56;5012984;28;20188;-71
2022/11/19 02:32:56;;;;;;;10.60;9.70;;;;;;;-0.79;77.93;100713.88;5012506;28;20203;-71
2022/11/19 02:35:35;;;;;;;11.10;10.00;;;;;;;-0.76;77.93;100708.84;5012939;28;20218;-71
2022/11/19 02:38:08;;;;;;;11.40;10.20;;;;;;;-0.76;77.71;100713.97;5012644;28;20223;-71
2022/11/19 02:40:40;;;;;;;11.00;9.93;;;;;;;-0.77;78.10;100713.91;5012239;28;20672;-71
2022/11/19 02:43:15;;;;;;;10.50;9.50;;;;;;;-0.85;77.92;100722.25;5012719;28;20217;-71
2022/11/19 02:45:49;;;;;;;10.10;9.20;;;;;;;-0.87;78.53;100708.50;5012488;28;20203;-71
2022/11/19 02:48:21;;;;;;;9.90;9.00;;;;;;;-0.82;79.19;100698.38;5012582;28;20301;-71
2022/11/19 02:50:51;;;;;;;10.10;9.20;;;;;;;-0.88;78.29;100698.19;5012252;28;20293;-71
2022/11/19 02:53:18;;;;;;;10.93;9.93;;;;;;;-0.98;78.44;100703.88;5012276;28;20676;-71
2022/11/19 02:56:09;;;;;;;10.00;9.10;;;;;;;-1.01;78.71;100695.25;5012441;28;20218;-71
2022/11/19 03:06:55;;;;;;;10.90;9.93;;;;;;;-1.10;78.32;100707.75;5012426;28;20306;-71
2022/11/19 03:09:23;;;;;;;10.43;9.43;;;;;;;-1.08;78.53;100702.69;5012525;28;20207;-71
2022/11/19 03:11:57;;;;;;;9.73;8.83;;;;;;;-1.10;78.19;100704.34;5011814;28;20211;-71
2022/11/19 03:17:21;;;;;;;9.60;8.70;;;;;;;-1.08;78.00;100705.25;4956293;28;20710;-71
2022/11/19 03:19:52;;;;;;;10.97;9.93;;;;;;;-1.05;77.89;100710.47;5011972;28;20211;-71
2022/11/19 03:22:23;;;;;;;10.03;9.13;;;;;;;-1.09;77.61;100722.31;5011677;28;20215;-71
2022/11/19 03:24:54;;;;;;;10.80;9.80;;;;;;;-1.14;77.81;100733.22;5012173;28;20226;-71
2022/11/19 03:27:26;;;;;;;10.17;9.27;;;;;;;-1.15;78.13;100726.34;5012110;28;20237;-71
2022/11/19 03:29:58;;;;;;;10.03;9.03;;;;;;;-1.12;77.66;100731.59;5011903;28;20207;-71
2022/11/19 03:32:30;;;;;;;10.77;9.73;;;;;;;-1.18;77.97;100736.50;5011855;28;20206;-71
2022/11/19 03:35:01;;;;;;;10.17;9.27;;;;;;;-1.22;77.39;100753.47;5012268;28;20206;-71
2022/11/19 03:37:31;;;;;;;9.63;8.63;;;;;;;-1.30;78.07;100755.75;5012026;28;20234;-71
2022/11/19 03:40:00;;;;;;;9.97;9.07;;;;;;;-1.37;78.36;100746.13;5011785;28;20218;-71
2022/11/19 03:42:27;;;;;;;9.93;8.93;;;;;;;-1.35;78.66;100738.50;5012018;28;20204;-71
2022/11/19 03:44:59;;;;;;;9.10;8.17;;;;;;;-1.38;78.68;100734.16;5011740;28;20231;-71
2022/11/19 03:47:32;;;;;;;10.50;9.60;;;;;;;-1.40;78.84;100728.09;5011697;28;20707;-71
2022/11/19 03:50:05;;;;;;;10.03;9.10;;;;;;;-1.46;78.93;100733.00;5011555;28;20210;-71
2022/11/19 03:52:32;;;;;;;9.97;9.07;;;;;;;-1.37;78.54;100725.63;5011840;28;20589;-71
2022/11/19 03:54:58;;;;;;;9.33;8.43;;;;;;;-1.37;78.41;100733.31;5011696;28;20679;-71
2022/11/19 03:57:26;;;;;;;9.80;8.80;;;;;;;-1.40;78.34;100738.34;5011569;28;20234;-71
2022/11/19 03:59:53;;;;;;;10.50;9.60;;;;;;;-1.43;78.24;100754.47;5011474;28;20219;-71
2022/11/19 04:02:19;;;;;;;9.30;8.40;;;;;;;-1.45;78.30;100756.13;5011798;28;20229;-71
2022/11/19 04:04:47;;;;;;;9.47;8.67;;;;;;;-1.46;78.46;100753.50;5011524;28;20604;-71
2022/11/19 04:07:15;;;;;;;9.50;8.63;;;;;;;-1.51;78.46;100758.44;5011585;28;20231;-71
2022/11/19 04:09:42;;;;;;;9.77;8.80;;;;;;;-1.49;78.60;100761.06;5011586;28;20668;-71
2022/11/19 04:12:15;;;;;;;9.17;8.37;;;;;;;-1.50;78.18;100757.63;5011340;28;20222;-71
2022/11/19 04:14:42;;;;;;;9.43;8.63;;;;;;;-1.49;78.52;100766.16;5011698;28;20595;-71
2022/11/19 04:17:09;;;;;;;9.60;8.70;;;;;;;-1.51;77.96;100766.13;5011559;28;20233;-71
2022/11/19 04:19:35;;;;;;;10.30;9.40;;;;;;;-1.51;77.97;100770.38;5011691;28;20233;-71
2022/11/19 04:22:03;;;;;;;9.20;8.40;;;;;;;-1.56;78.03;100771.91;5011282;28;20203;-71
2022/11/19 04:24:30;;;;;;;10.10;8.77;;;;;;;-1.58;78.16;100773.56;5011498;28;20235;-71
2022/11/19 04:26:56;;;;;;;9.97;8.97;;;;;;;-1.57;77.97;100772.72;5011560;28;20234;-71
2022/11/19 04:29:23;;;;;;;9.87;8.97;;;;;;;-1.59;78.10;100780.34;5011296;28;20218;-71
2022/11/19 04:31:49;;;;;;;9.93;9.03;;;;;;;-1.61;77.97;100781.97;5011118;28;20215;-71
2022/11/19 04:34:16;;;;;;;9.00;8.20;;;;;;;-1.65;77.95;100783.53;5011542;28;20203;-71
2022/11/19 04:36:43;;;;;;;10.50;9.50;;;;;;;-1.68;78.23;100780.88;5014577;28;20230;-71
2022/11/19 04:39:11;;;;;;;9.53;8.63;;;;;;;-1.69;77.99;100784.25;5014845;28;20637;-71
2022/11/19 04:41:39;;;;;;;9.63;8.73;;;;;;;-1.69;77.85;100780.81;5014527;28;20211;-71
2022/11/19 04:44:06;;;;;;;8.70;7.93;;;;;;;-1.72;78.17;100783.28;5015010;28;20226;-71
2022/11/19 04:46:32;;;;;;;9.63;8.73;;;;;;;-1.74;77.79;100773.00;5014719;28;20230;-71
2022/11/19 04:48:59;;;;;;;9.20;8.40;;;;;;;-1.81;78.41;100778.69;5014617;28;20210;-71
2022/11/19 04:51:25;;;;;;;9.90;8.43;;;;;;;-1.74;78.11;100778.09;5014307;28;20587;-71
2022/11/19 04:53:52;;;;;;;9.93;9.03;;;;;;;-1.76;78.11;100787.41;5014329;28;20699;-71
2022/11/19 04:56:20;;;;;;;9.87;8.97;;;;;;;-1.78;77.89;100796.72;5014330;28;20227;-71
2022/11/19 04:58:47;;;;;;;10.20;9.20;;;;;;;-1.94;78.72;100789.28;5014554;28;20214;-71
2022/11/19 05:01:13;;;;;;;10.83;9.77;;;;;;;-1.91;78.77;100785.16;5014222;28;20216;-71
2022/11/19 05:03:40;;;;;;;10.30;9.30;;;;;;;-1.92;78.86;100769.75;5014270;28;20219;-70
2022/11/19 05:06:07;;;;;;;10.07;9.13;;;;;;;-1.84;78.54;100766.66;5014139;28;20243;-70
2022/11/19 05:08:33;;;;;;;10.50;9.50;;;;;;;-1.80;78.24;100762.53;5014271;28;20214;-70
2022/11/19 05:11:00;;;;;;;10.07;9.17;;;;;;;-1.84;78.06;100774.34;5014150;28;20230;-70
2022/11/19 05:13:28;;;;;;;10.30;9.23;;;;;;;-1.88;78.41;100772.50;5014228;28;20205;-70
2022/11/19 05:15:54;;;;;;;10.43;9.53;;;;;;;-1.93;78.33;100780.81;5014116;28;20214;-70
2022/11/19 05:18:21;;;;;;;10.67;9.33;;;;;;;-2.00;78.68;100760.13;5013987;28;20685;-70
2022/11/19 05:20:47;;;;;;;10.47;9.47;;;;;;;-2.03;78.84;100754.88;5013728;28;20207;-70
2022/11/19 05:23:14;;;;;;;10.57;9.57;;;;;;;-1.96;78.80;100745.75;5014174;28;20211;-71
2022/11/19 05:25:40;;;;;;;10.80;9.90;;;;;;;-1.92;78.43;100755.28;5013843;28;20223;-71
2022/11/19 05:28:07;;;;;;;9.80;8.90;;;;;;;-1.88;78.31;100752.03;5013971;28;20210;-70
2022/11/19 05:30:35;;;;;;;11.07;10.00;;;;;;;-1.90;78.05;100768.09;5013748;28;20210;-71
2022/11/19 05:33:01;;;;;;;10.00;9.10;;;;;;;-1.96;78.35;100781.56;5013696;28;20214;-71
2022/11/19 05:35:28;;;;;;;10.93;9.97;;;;;;;-1.99;78.64;100778.88;5013661;28;20208;-71
2022/11/19 05:37:54;;;;;;;10.33;9.40;;;;;;;-2.06;78.67;100770.13;5013829;28;20230;-71
2022/11/19 05:40:21;;;;;;;10.47;9.13;;;;;;;-2.14;79.27;100770.63;5013332;28;20210;-71
2022/11/19 05:42:48;;;;;;;10.63;9.63;;;;;;;-2.06;78.80;100744.53;5013785;28;20203;-71
2022/11/19 05:45:15;;;;;;;10.73;9.63;;;;;;;-2.05;78.67;100737.75;5013470;28;20227;-71
2022/11/19 05:47:42;;;;;;;10.43;9.50;;;;;;;-2.14;79.37;100745.06;5013194;28;20313;-71
2022/11/19 05:50:09;;;;;;;11.53;10.30;;;;;;;-2.10;79.03;100739.25;5013195;28;20222;-70
2022/11/19 05:52:36;;;;;;;10.57;9.50;;;;;;;-2.11;78.78;100735.81;5013584;28;20206;-71
2022/11/19 05:55:03;;;;;;;11.40;10.20;;;;;;;-2.13;78.83;100744.25;5013487;28;20213;-70
2022/11/19 05:57:29;;;;;;;11.87;9.83;;;;;;;-2.33;79.45;100738.41;5013251;28;20735;-70
2022/11/19 05:59:56;;;;;;;11.33;10.23;;;;;;;-2.38;80.17;100720.31;5013170;28;20206;-70
2022/11/19 06:02:22;;;;;;;10.70;9.70;;;;;;;-2.40;79.89;100712.59;5013268;28;20207;-70
2022/11/19 06:04:50;;;;;;;10.87;9.77;;;;;;;-2.39;80.12;100705.81;5012972;28;20241;-71
2022/11/19 06:07:17;;;;;;;11.90;10.60;;;;;;;-2.41;80.24;100705.75;5013360;28;20250;-70
2022/11/19 06:09:43;;;;;;;11.37;10.27;;;;;;;-2.34;79.83;100694.03;5013307;28;20213;-71
2022/11/19 06:12:10;;;;;;;11.23;10.10;;;;;;;-2.39;79.85;100710.91;5012937;28;20218;-71
2022/11/19 06:14:36;;;;;;;10.27;8.97;;;;;;;-2.34;79.58;100717.06;5013126;28;20386;-71
2022/11/19 06:17:03;;;;;;;10.23;9.33;;;;;;;-2.29;79.14;100735.16;5012974;28;20607;-70
2022/11/19 06:19:29;;;;;;;12.83;10.33;;;;;;;-2.26;78.68;100748.03;5013192;28;20203;-70
2022/11/19 06:21:57;;;;;;;10.43;9.43;;;;;;;-2.26;78.85;100760.81;5012921;28;20210;-70
2022/11/19 06:24:24;;;;;;;11.00;9.80;;;;;;;-2.32;78.82;100769.16;5013180;28;20265;-70
2022/11/19 06:26:51;;;;;;;11.50;10.37;;;;;;;-2.32;79.14;100778.47;5013018;28;20598;-71
2022/11/19 06:29:18;;;;;;;11.00;10.00;;;;;;;-2.34;79.00;100782.66;5012843;28;20218;-70
2022/11/19 06:31:45;;;;;;;10.53;9.50;;;;;;;-2.37;79.28;100777.44;5012392;28;20211;-70
2022/11/19 06:34:12;;;;;;;15.07;9.47;;;;;;;-2.44;79.46;100779.75;5012852;28;20207;-70
2022/11/19 06:36:39;;;;;;;10.87;9.77;;;;;;;-2.42;79.79;100775.59;5012607;28;20716;-70
2022/11/19 06:39:07;;;;;;;11.20;10.20;;;;;;;-2.45;79.65;100767.78;5012557;28;20217;-70
2022/11/19 06:41:34;;;;;;;11.33;10.23;;;;;;;-2.48;79.72;100772.78;5012460;28;20297;-70
2022/11/19 06:44:01;;;;;;;10.70;9.63;;;;;;;-2.47;79.90;100769.41;5012545;28;20206;-70
2022/11/19 06:46:27;;;;;;;11.33;10.27;;;;;;;-2.53;79.69;100769.16;5012551;28;20246;-71
2022/11/19 06:48:54;;;;;;;10.47;9.50;;;;;;;-2.54;80.12;100771.66;5012455;28;20211;-71
2022/11/19 06:51:20;;;;;;;10.93;9.73;;;;;;;-2.53;80.26;100763.19;5012269;28;20210;-71
2022/11/19 06:53:47;;;;;;;12.33;10.73;;;;;;;-2.50;79.92;100770.97;5012480;28;20213;-71
2022/11/19 06:56:14;;;;;;;11.03;9.93;;;;;;;-2.52;79.70;100765.78;5012293;28;20223;-71
2022/11/19 06:58:41;;;;;;;11.60;10.20;;;;;;;-2.50;80.06;100759.03;5011636;28;20218;-71
2022/11/19 07:01:07;;;;;;;11.00;9.90;;;;;;;-2.51;79.73;100770.09;5011960;28;20222;-71
2022/11/19 07:03:34;;;;;;;11.03;9.93;;;;;;;-2.53;79.60;100774.28;5012485;28;20597;-70
2022/11/19 07:06:03;;;;;;;10.93;9.93;;;;;;;-2.52;79.59;100780.25;5012122;28;20243;-70
2022/11/19 07:08:33;;;;;;;11.80;10.67;;;;;;;-2.53;79.85;100779.41;5012174;28;20210;-71
2022/11/19 07:10:59;;;;;;;11.83;10.67;;;;;;;-2.52;79.91;100785.38;5011895;28;20313;-70
2022/11/19 07:13:55;;;;;;;11.57;10.43;;;;;;;-2.49;79.82;100778.69;5012350;28;20207;-70
2022/11/19 07:16:14;;;;;;;12.77;10.90;;;;;;;-2.51;80.04;100780.31;5012026;28;20233;-71
2022/11/19 07:18:40;;;;;;;22.00;16.03;;;;;;;-2.55;80.14;100773.34;5012104;28;20233;-71
2022/11/19 07:21:07;;;;;;;11.77;10.57;;;;;;;-2.52;80.38;100765.78;5011849;28;20233;-70
2022/11/19 07:23:33;;;;;;;12.47;11.27;;;;;;;-2.56;80.69;100755.41;5011936;28;20211;-70
2022/11/19 07:26:00;;;;;;;12.60;10.20;;;;;;;-2.48;80.65;100749.78;5012156;28;20230;-71
2022/11/19 07:28:28;;;;;;;11.87;10.70;;;;;;;-2.41;80.46;100754.31;5011932;28;20207;-71
2022/11/19 07:30:55;;;;;;;26.77;18.57;;;;;;;-2.35;80.04;100763.03;5011995;28;20218;-70
2022/11/19 07:33:21;;;;;;;15.73;12.37;;;;;;;-2.33;79.65;100779.31;5011987;28;20225;-70
2022/11/19 07:35:48;;;;;;;19.37;15.53;;;;;;;-2.38;80.14;100796.13;5011799;28;20206;-71
2022/11/19 07:38:14;;;;;;;26.90;20.50;;;;;;;-2.33;79.93;100794.63;5011884;28;20218;-71
2022/11/19 07:40:41;;;;;;;11.23;10.13;;;;;;;-2.26;79.91;100791.50;5012079;28;20210;-71
2022/11/19 07:43:06;;;;;;;14.03;12.63;;;;;;;-2.22;79.77;100794.25;5012087;28;20210;-70
2022/11/19 07:45:37;;;;;;;13.73;12.43;;;;;;;-2.20;79.31;100809.63;5012011;28;20226;-70
2022/11/19 07:48:04;;;;;;;12.47;11.27;;;;;;;-2.29;80.15;100812.72;5011811;28;20234;-71
2022/11/19 07:50:30;;;;;;;12.33;11.13;;;;;;;-2.22;79.96;100795.91;5011539;28;20206;-71
2022/11/19 07:52:57;;;;;;;11.37;10.13;;;;;;;-2.16;79.80;100790.16;5011814;28;20213;-71
2022/11/19 07:55:24;;;;;;;10.47;9.57;;;;;;;-2.15;79.71;100800.44;5012086;28;20208;-71
2022/11/19 07:57:52;;;;;;;10.23;9.33;;;;;;;-2.12;79.74;100798.03;5011977;28;20235;-73
2022/11/19 08:00:19;;;;;;;11.27;10.07;;;;;;;-2.10;79.66;100806.63;5011601;28;20212;-73
2022/11/19 08:02:48;;;;;;;10.43;9.43;;;;;;;-2.17;80.01;100802.09;5011536;28;20217;-73
2022/11/19 08:05:14;;;;;;;11.33;10.23;;;;;;;-2.22;80.16;100801.91;5026622;22;20249;-78
2022/11/19 08:07:41;;;;;;;11.80;10.70;;;;;;;-2.20;80.77;100797.72;5014242;28;20210;-78
2022/11/19 08:10:09;;;;;;;11.83;10.63;;;;;;;-2.21;80.68;100790.00;5016128;28;20222;-78
2022/11/19 08:12:36;;;;;;;11.80;10.60;;;;;;;-2.27;80.91;100782.97;5017529;28;20207;-78
2022/11/19 08:15:03;;;;;;;11.37;10.27;;;;;;;-2.24;81.12;100771.97;5017946;28;20238;-78
2022/11/19 08:20:16;;;;;;;10.57;9.47;;;;;;;-2.11;80.84;100765.66;5017228;28;20685;-78
2022/11/19 08:22:42;;;;;;;11.87;10.40;;;;;;;-2.03;80.40;100775.34;5017449;28;20207;-78
2022/11/19 08:25:09;;;;;;;11.30;10.10;;;;;;;-2.01;80.51;100775.41;5016662;28;20227;-79
2022/11/19 08:27:35;;;;;;;10.73;9.73;;;;;;;-1.99;80.71;100768.66;5017571;28;20213;-78
2022/11/19 08:30:02;;;;;;;13.70;12.30;;;;;;;-2.10;80.96;100759.69;5016903;28;20214;-78
2022/11/19 08:32:28;;;;;;;13.90;12.23;;;;;;;-2.04;81.42;100747.16;5017345;28;20225;-78
2022/11/19 08:34:54;;;;;;;14.20;12.70;;;;;;;-1.90;80.86;100745.97;5016195;28;20235;-77
2022/11/19 08:37:22;;;;;;;14.47;13.07;;;;;;;-1.94;81.28;100746.69;5016874;28;20210;-78
2022/11/19 08:39:49;;;;;;;16.83;15.10;;;;;;;-1.87;81.36;100747.78;5016102;28;20215;-77
2022/11/19 08:44:59;;;;;;;14.77;13.10;;;;;;;-1.71;80.20;100767.97;5014120;28;20237;-78
2022/11/19 08:47:26;;;;;;;61.50;29.30;;;;;;;-1.67;80.05;100781.75;5014226;28;20233;-77
2022/11/19 08:49:52;;;;;;;30.90;14.50;;;;;;;-1.77;80.85;100788.22;5011060;28;20210;-77
2022/11/19 08:52:19;;;;;;;12.50;11.40;;;;;;;-1.77;81.31;100777.13;5013759;28;20207;-77
2022/11/19 08:54:46;;;;;;;14.23;12.73;;;;;;;-1.81;81.57;100759.09;5020054;28;20273;-78
2022/11/19 08:57:15;;;;;;;14.07;12.67;;;;;;;-1.81;81.65;100750.53;5026424;28;20198;-79
2022/11/19 08:59:41;;;;;;;17.73;14.10;;;;;;;-1.79;81.49;100748.91;5024469;28;20206;-79
2022/11/19 09:02:10;;;;;;;19.37;15.17;;;;;;;-1.83;81.88;100745.38;5016104;28;20210;-78
2022/11/19 09:04:36;;;;;;;13.63;11.17;;;;;;;-1.84;82.22;100742.78;5016030;28;20226;-78
2022/11/19 09:07:03;;;;;;;12.23;11.03;;;;;;;-1.74;82.04;100733.75;5016833;28;20226;-78
2022/11/19 09:09:29;;;;;;;11.73;10.53;;;;;;;-1.72;82.70;100724.44;5016524;28;20625;-78
2022/11/19 09:11:57;;;;;;;11.17;10.17;;;;;;;-1.68;83.35;100695.56;5014343;28;20207;-77
2022/11/19 09:14:23;;;;;;;11.07;10.03;;;;;;;-1.46;87.57;100626.34;5014890;28;20208;-79
2022/11/19 09:16:50;;;;;;;18.03;11.27;;;;;;;-1.26;91.28;100508.34;5015034;28;20230;-77
2022/11/19 09:19:16;;;;;;;10.53;9.53;;;;;;;-1.23;91.80;100429.03;5013596;28;20580;-77
2022/11/19 09:21:42;;;;;;;11.30;10.20;;;;;;;-1.25;90.49;100434.13;5012749;28;20214;-76
2022/11/19 09:24:09;;;;;;;12.43;11.07;;;;;;;-1.16;90.34;100419.84;5013540;28;20216;-77
2022/11/19 09:26:35;;;;;;;11.60;10.47;;;;;;;-1.24;88.87;100451.22;5013644;28;20713;-77
2022/11/19 09:29:03;;;;;;;14.20;12.77;;;;;;;-1.16;89.41;100459.13;5012440;28;20206;-77
2022/11/19 09:31:29;;;;;;;12.73;11.47;;;;;;;-1.05;90.01;100449.16;5013075;28;20214;-77
2022/11/19 09:33:56;;;;;;;12.00;10.90;;;;;;;-0.87;91.60;100398.47;5013449;28;20208;-76
2022/11/19 09:36:22;;;;;;;11.83;10.73;;;;;;;-0.78;91.54;100385.00;5013232;28;20238;-77
2022/11/19 09:38:49;;;;;;;11.30;10.27;;;;;;;-0.73;91.15;100385.13;5011803;28;20238;-77
2022/11/19 09:41:40;;;;;;;16.53;12.27;;;;;;;-0.81;89.95;100406.31;5013130;28;20210;-77
2022/11/19 09:44:19;;;;;;;12.90;11.67;;;;;;;-0.87;88.73;100433.47;5013161;28;20215;-77
2022/11/19 09:46:56;;;;;;;15.23;13.63;;;;;;;-0.90;88.25;100459.84;5012937;28;20230;-78
2022/11/19 09:49:28;;;;;;;13.83;12.13;;;;;;;-0.63;91.11;100449.50;5012495;28;20245;-77
2022/11/19 09:52:01;;;;;;;13.27;11.97;;;;;;;-0.36;93.19;100376.66;5012569;28;20261;-77
2022/11/19 09:54:27;;;;;;;13.07;11.77;;;;;;;-0.30;92.73;100358.84;5012678;28;20242;-78
2022/11/19 09:56:55;;;;;;;15.30;13.80;;;;;;;-0.26;91.47;100370.06;5012961;28;20206;-77
2022/11/19 09:59:30;;;;;;;13.70;12.40;;;;;;;-0.27;90.53;100394.84;5012487;28;20257;-77
2022/11/19 10:01:57;;;;;;;16.17;14.68;;;;;;;-0.22;90.23;100397.50;5012055;28;20826;-77
2022/11/19 10:04:25;;;;;;;14.20;13.00;;;;;;;0.07;92.52;100376.81;5012184;28;20210;-78
2022/11/19 10:07:06;;;;;;;12.77;11.43;;;;;;;0.04;89.93;100358.75;5012484;28;20231;-77
2022/11/19 10:09:49;;;;;;;11.33;10.30;;;;;;;-0.26;83.84;100491.50;5012034;28;20214;-77
2022/11/19 10:12:29;;;;;;;11.60;10.50;;;;;;;-0.50;82.42;100554.94;5012570;28;20229;-77
2022/11/19 10:15:11;;;;;;;12.37;11.23;;;;;;;-0.67;83.19;100639.91;5012336;28;20228;-78
2022/11/19 10:17:53;;;;;;;13.20;11.93;;;;;;;-0.36;86.04;100601.47;5012288;28;20214;-77
2022/11/19 10:20:32;;;;;;;14.52;13.32;;;;;;;-0.29;84.92;100593.13;5011163;28;20925;-77
2022/11/19 10:23:08;;;;;;;12.67;11.37;;;;;;;-0.22;86.53;100593.34;5012231;28;20589;-77
2022/11/19 10:25:38;;;;;;;12.80;11.50;;;;;;;-0.10;88.29;100569.72;5012110;28;20222;-77
2022/11/19 10:28:12;;;;;;;13.87;12.47;;;;;;;0.15;90.56;100503.59;5012284;28;20207;-77
2022/11/19 10:30:43;;;;;;;12.53;11.43;;;;;;;0.16;88.57;100482.25;5011808;28;20700;-77
2022/11/19 10:33:14;;;;;;;11.77;10.67;;;;;;;-0.26;83.17;100572.69;5011167;28;20219;-77
2022/11/19 10:35:46;;;;;;;12.03;10.93;;;;;;;-0.61;80.93;100664.88;5011911;28;20234;-77
2022/11/19 10:38:22;;;;;;;12.03;10.83;;;;;;;-1.17;81.61;100715.19;5012137;28;20211;-77
2022/11/19 10:40:53;;;;;;;12.57;11.30;;;;;;;-1.12;83.09;100713.66;5011730;28;20748;-78
2022/11/19 10:43:27;;;;;;;11.33;10.23;;;;;;;-0.57;88.81;100619.69;5011931;28;20679;-77
2022/11/19 10:45:58;;;;;;;13.30;11.80;;;;;;;-0.27;91.18;100537.59;5011784;28;20258;-78
2022/11/19 10:48:29;;;;;;;12.10;10.90;;;;;;;-0.06;91.89;100453.50;5012107;28;20203;-78
2022/11/19 10:51:01;;;;;;;15.43;11.43;;;;;;;-0.32;86.70;100475.06;5011512;28;20211;-77
2022/11/19 10:53:32;;;;;;;12.33;11.13;;;;;;;-0.77;84.07;100583.19;5011957;28;20203;-77
2022/11/19 10:56:03;;;;;;;13.00;11.70;;;;;;;-0.76;84.33;100613.16;5011607;28;20714;-77
2022/11/19 10:58:35;;;;;;;23.27;15.33;;;;;;;-0.42;87.58;100566.25;5011932;28;20210;-77
2022/11/19 11:01:12;;;;;;;16.10;14.40;;;;;;;-0.26;86.81;100547.91;5011379;28;20199;-78
2022/11/19 11:03:45;;;;;;;17.60;16.00;;;;;;;-0.10;87.19;100566.25;5011986;28;20838;-76
2022/11/19 11:06:12;;;;;;;15.47;14.07;;;;;;;0.26;90.50;100480.75;5009923;28;20231;-76
2022/11/19 11:08:48;;;;;;;15.13;13.73;;;;;;;0.51;92.12;100416.28;5010253;28;20208;-77
2022/11/19 11:11:21;;;;;;;13.50;12.30;;;;;;;0.39;88.56;100441.69;5009689;28;20226;-76
2022/11/19 11:16:45;;;;;;;11.90;10.37;;;;;;;0.30;84.67;100539.91;5010049;28;20239;-77
2022/11/19 11:19:14;;;;;;;13.67;12.47;;;;;;;0.36;85.03;100557.19;5010240;28;20200;-77
2022/11/19 11:21:43;;;;;;;15.03;13.53;;;;;;;0.39;86.40;100552.97;5007499;28;20616;-76
2022/11/19 11:24:12;;;;;;;14.57;12.77;;;;;;;0.41;84.76;100562.41;5009814;28;20578;-77
2022/11/19 11:26:39;;;;;;;13.57;12.20;;;;;;;0.37;82.92;100612.81;5007585;28;20223;-77
2022/11/19 11:29:23;;;;;;;12.43;10.77;;;;;;;0.34;80.96;100667.53;5007600;28;20231;-77
2022/11/19 11:31:51;;;;;;;12.17;11.17;;;;;;;0.59;87.17;100621.91;5008594;28;20249;-77
2022/11/19 11:34:29;;;;;;;12.20;11.10;;;;;;;0.53;82.72;100634.63;5018943;28;20208;-77
2022/11/19 11:36:57;;;;;;;11.60;10.40;;;;;;;0.70;85.48;100645.31;5013683;28;20229;-77
2022/11/19 11:39:27;;;;;;;12.00;11.00;;;;;;;0.73;85.98;100588.84;5018080;28;20198;-77
2022/11/19 11:41:57;;;;;;;11.93;10.73;;;;;;;0.77;84.29;100603.50;5021660;28;20571;-77
2022/11/19 11:44:25;;;;;;;12.67;10.43;;;;;;;0.87;86.91;100590.03;5032163;28;20233;-77
2022/11/19 11:46:59;;;;;;;11.00;10.00;;;;;;;0.75;83.31;100624.03;5036268;28;20229;-79